Time;durP1;ratioP1;P1;durP2;ratioP2;P2;SDS_P1;SDS_P2;PMS_P1;PMS_P2;Temp;Humidity;BMP_temperature;BMP_pressure;BME280_temperature;BME280_humidity;BME280_pressure;Samples;Min_cycle;Max_cycle;Signal;HPM_P1;HPM_P2
2022/08/25 00:01:37;;;;;;;0.10;0.03;;;24.10;87.50;;;;;;5032875;28;20405;-69
2022/08/25 00:04:07;;;;;;;0.00;0.00;;;24.10;88.10;;;;;;5050755;28;20540;-69
2022/08/25 00:06:33;;;;;;;0.77;0.35;;;24.10;89.00;;;;;;5050570;28;20057;-70
2022/08/25 00:08:59;;;;;;;0.00;0.00;;;24.10;88.40;;;;;;5053551;28;20065;-70
2022/08/25 00:11:29;;;;;;;0.57;0.43;;;24.10;88.60;;;;;;5054788;28;20132;-70
2022/08/25 00:14:00;;;;;;;0.60;0.60;;;24.10;88.90;;;;;;5054477;28;20036;-70
2022/08/25 00:16:27;;;;;;;0.00;0.00;;;24.20;88.80;;;;;;5036926;28;20043;-70
2022/08/25 00:18:59;;;;;;;0.30;0.30;;;24.20;88.90;;;;;;5036695;28;20037;-69
2022/08/25 00:21:26;;;;;;;0.17;0.15;;;24.20;89.00;;;;;;5054610;28;20040;-69
2022/08/25 00:23:52;;;;;;;0.15;0.15;;;24.20;88.90;;;;;;5036472;28;20017;-69
2022/08/25 00:26:20;;;;;;;0.35;0.35;;;24.10;88.70;;;;;;5036867;28;20417;-69
2022/08/25 00:28:46;;;;;;;0.98;0.57;;;24.10;88.90;;;;;;5036690;28;20424;-69
2022/08/25 00:31:19;;;;;;;0.65;0.20;;;24.10;88.80;;;;;;5036664;28;20083;-69
2022/08/25 00:33:47;;;;;;;0.85;0.30;;;24.10;88.80;;;;;;5054295;28;20428;-69
2022/08/25 00:36:15;;;;;;;0.00;0.00;;;24.10;88.80;;;;;;5054252;28;20481;-69
2022/08/25 00:38:43;;;;;;;0.10;0.10;;;24.10;89.10;;;;;;5036673;28;20071;-69
2022/08/25 00:41:14;;;;;;;0.88;0.52;;;24.10;89.50;;;;;;5036573;28;20037;-69
2022/08/25 00:43:40;;;;;;;0.00;0.00;;;24.10;89.60;;;;;;5020159;28;20036;-69
2022/08/25 00:46:09;;;;;;;1.60;0.20;;;24.00;89.70;;;;;;5054243;28;20039;-69
2022/08/25 00:48:37;;;;;;;0.77;0.50;;;23.90;90.00;;;;;;5036479;28;20051;-69
2022/08/25 00:51:06;;;;;;;0.17;0.10;;;23.90;89.80;;;;;;5053893;28;20040;-69
2022/08/25 00:53:32;;;;;;;0.52;0.30;;;23.90;90.10;;;;;;5020260;28;20089;-69
2022/08/25 00:55:58;;;;;;;0.00;0.00;;;23.80;90.10;;;;;;5036159;28;20063;-69
2022/08/25 00:58:27;;;;;;;0.03;0.03;;;23.80;90.20;;;;;;5036141;28;20063;-69
2022/08/25 01:00:56;;;;;;;0.10;0.10;;;23.80;90.40;;;;;;5035893;28;20366;-69
2022/08/25 01:03:26;;;;;;;0.10;0.10;;;23.80;90.50;;;;;;5035860;28;20025;-69
2022/08/25 01:05:54;;;;;;;0.03;0.03;;;23.80;90.50;;;;;;5027570;28;20032;-69
2022/08/25 01:08:25;;;;;;;0.17;0.17;;;23.70;90.70;;;;;;5032876;28;20066;-69
2022/08/25 01:10:50;;;;;;;0.28;0.10;;;23.70;90.80;;;;;;5032880;28;20033;-69
2022/08/25 01:13:27;;;;;;;0.00;0.00;;;23.70;91.00;;;;;;5035763;28;20029;-69
2022/08/25 01:15:55;;;;;;;0.10;0.10;;;23.60;91.40;;;;;;5036401;28;20033;-69
2022/08/25 01:18:22;;;;;;;0.15;0.15;;;23.60;91.80;;;;;;5035659;28;20029;-69
2022/08/25 01:20:53;;;;;;;0.25;0.17;;;23.50;92.00;;;;;;5017630;28;20039;-70
2022/08/25 01:23:21;;;;;;;0.00;0.00;;;23.50;92.20;;;;;;5035674;28;20112;-69
2022/08/25 01:25:52;;;;;;;0.00;0.00;;;23.50;92.50;;;;;;5035494;28;20021;-69
2022/08/25 01:28:19;;;;;;;2.33;0.80;;;23.50;92.90;;;;;;5035460;28;20029;-70
2022/08/25 01:30:46;;;;;;;0.25;0.20;;;23.50;93.20;;;;;;5053168;28;20083;-69
2022/08/25 01:33:12;;;;;;;1.35;0.60;;;23.50;93.30;;;;;;5035119;28;20117;-69
2022/08/25 01:35:39;;;;;;;0.20;0.20;;;23.50;93.50;;;;;;5035663;28;20116;-69
2022/08/25 01:38:07;;;;;;;0.35;0.25;;;23.50;94.00;;;;;;5035323;28;20366;-69
2022/08/25 01:40:35;;;;;;;1.35;0.45;;;23.40;94.10;;;;;;5034781;28;20075;-69
2022/08/25 01:43:14;;;;;;;0.10;0.10;;;23.40;94.40;;;;;;5052611;28;20039;-69
2022/08/25 01:45:46;;;;;;;0.45;0.45;;;23.50;94.60;;;;;;5052646;28;20380;-69
2022/08/25 01:48:13;;;;;;;0.00;0.00;;;23.50;94.50;;;;;;5052828;28;20112;-70
2022/08/25 01:50:40;;;;;;;0.63;0.60;;;23.50;94.60;;;;;;5035434;28;20079;-70
2022/08/25 01:53:27;;;;;;;0.55;0.55;;;23.50;94.70;;;;;;5034795;28;20094;-67
2022/08/25 01:56:01;;;;;;;0.10;0.10;;;23.40;95.00;;;;;;5035552;28;20032;-69
2022/08/25 01:58:36;;;;;;;0.20;0.20;;;23.40;95.60;;;;;;5052693;28;20035;-69
2022/08/25 02:01:07;;;;;;;0.00;0.00;;;23.30;96.40;;;;;;5052443;28;20025;-69
2022/08/25 02:03:37;;;;;;;0.10;0.10;;;23.30;96.90;;;;;;5052230;28;20036;-69
2022/08/25 02:06:04;;;;;;;0.20;0.20;;;23.20;97.50;;;;;;5034957;28;20036;-70
2022/08/25 02:08:30;;;;;;;0.38;0.38;;;23.10;97.80;;;;;;5034615;28;20624;-69
2022/08/25 02:10:56;;;;;;;0.00;0.00;;;23.00;98.00;;;;;;5052262;28;20116;-67
2022/08/25 02:13:22;;;;;;;0.17;0.15;;;23.00;98.40;;;;;;5052163;28;20523;-67
2022/08/25 02:15:53;;;;;;;2.90;0.43;;;23.00;98.80;;;;;;5030748;28;20424;-69
2022/08/25 02:18:19;;;;;;;0.13;0.13;;;22.90;99.20;;;;;;5015081;28;20033;-67
2022/08/25 02:20:45;;;;;;;0.10;0.10;;;22.90;99.40;;;;;;5032364;28;20386;-68
2022/08/25 02:23:12;;;;;;;0.10;0.10;;;22.80;99.80;;;;;;5014266;28;20436;-68
2022/08/25 02:25:40;;;;;;;0.82;0.32;;;22.70;99.90;;;;;;4998351;28;20022;-68
2022/08/25 02:28:07;;;;;;;0.30;0.30;;;22.70;99.90;;;;;;5032200;28;20120;-68
2022/08/25 02:30:35;;;;;;;0.10;0.10;;;22.70;99.90;;;;;;5014274;28;20119;-68
2022/08/25 02:33:01;;;;;;;0.10;0.10;;;22.60;99.80;;;;;;5014127;28;20036;-69
2022/08/25 02:35:28;;;;;;;0.17;0.17;;;22.70;99.50;;;;;;5014045;28;20492;-68
2022/08/25 02:37:54;;;;;;;0.35;0.35;;;22.70;99.50;;;;;;5031866;28;20112;-68
2022/08/25 02:40:20;;;;;;;1.13;1.02;;;22.70;99.60;;;;;;5031978;28;20045;-68
2022/08/25 02:42:50;;;;;;;0.22;0.22;;;22.80;99.50;;;;;;5014092;28;20160;-68
2022/08/25 02:45:17;;;;;;;0.20;0.20;;;22.80;99.20;;;;;;5031738;28;20048;-68
2022/08/25 02:47:44;;;;;;;2.72;0.98;;;22.80;99.30;;;;;;5031967;28;20400;-68
2022/08/25 02:50:11;;;;;;;0.17;0.17;;;22.80;99.00;;;;;;5031652;28;20030;-68
2022/08/25 02:52:39;;;;;;;0.20;0.20;;;22.80;99.00;;;;;;5031667;28;20025;-68
2022/08/25 02:55:08;;;;;;;0.30;0.30;;;22.80;99.00;;;;;;5031474;28;20073;-68
2022/08/25 02:57:34;;;;;;;0.17;0.17;;;22.80;98.80;;;;;;5014084;28;20025;-68
2022/08/25 03:00:01;;;;;;;0.90;0.80;;;22.90;98.80;;;;;;5031426;28;20095;-68
2022/08/25 03:02:26;;;;;;;0.10;0.10;;;22.90;98.90;;;;;;5033220;28;20507;-68
2022/08/25 03:04:53;;;;;;;0.13;0.13;;;22.90;98.80;;;;;;5049013;28;20056;-68
2022/08/25 03:07:20;;;;;;;0.15;0.15;;;23.00;98.40;;;;;;5050303;28;20033;-67
2022/08/25 03:09:47;;;;;;;5.50;0.68;;;23.00;98.00;;;;;;5032644;28;20025;-68
2022/08/25 03:12:13;;;;;;;0.35;0.35;;;23.10;97.90;;;;;;5050385;28;20432;-67
2022/08/25 03:14:39;;;;;;;0.00;0.00;;;23.10;97.80;;;;;;5050447;28;20036;-68
2022/08/25 03:17:07;;;;;;;0.95;0.60;;;23.00;97.90;;;;;;5033214;28;20047;-68
2022/08/25 03:19:35;;;;;;;0.32;0.20;;;23.00;97.60;;;;;;5016285;28;20021;-68
2022/08/25 03:22:01;;;;;;;0.10;0.10;;;23.00;97.70;;;;;;5032931;28;20040;-68
2022/08/25 03:24:27;;;;;;;0.20;0.20;;;22.90;97.60;;;;;;5050057;28;20025;-68
2022/08/25 03:26:54;;;;;;;0.17;0.17;;;22.90;97.70;;;;;;5033158;28;20051;-68
2022/08/25 03:29:32;;;;;;;0.40;0.40;;;22.70;97.90;;;;;;5050141;28;20493;-68
2022/08/25 03:31:59;;;;;;;0.10;0.10;;;22.70;98.20;;;;;;5032987;28;20078;-68
2022/08/25 03:34:28;;;;;;;0.45;0.45;;;22.70;98.40;;;;;;5032751;28;20091;-69
2022/08/25 03:36:55;;;;;;;0.05;0.05;;;22.50;98.70;;;;;;5050583;28;20132;-69
2022/08/25 03:39:24;;;;;;;0.82;0.50;;;22.60;98.80;;;;;;5032076;28;20417;-69
2022/08/25 03:41:51;;;;;;;2.15;0.30;;;22.60;98.80;;;;;;5016153;28;20052;-68
2022/08/25 03:44:19;;;;;;;0.10;0.00;;;22.60;98.90;;;;;;5031945;28;20443;-69
2022/08/25 03:46:50;;;;;;;0.52;0.43;;;22.60;99.10;;;;;;5032932;28;20036;-69
2022/08/25 03:49:21;;;;;;;;;;;22.50;99.40;;;;;;5033280;28;20091;-69
2022/08/25 03:51:49;;;;;;;0.30;0.28;;;22.30;99.90;;;;;;5049338;28;20280;-69
2022/08/25 03:54:24;;;;;;;0.30;0.20;;;22.30;99.90;;;;;;5050253;28;20044;-68
2022/08/25 03:56:50;;;;;;;0.20;0.20;;;22.30;99.90;;;;;;5050446;28;20028;-68
2022/08/25 03:59:16;;;;;;;0.30;0.30;;;22.30;99.90;;;;;;5050103;28;20107;-68
2022/08/25 04:01:44;;;;;;;0.20;0.20;;;22.30;99.90;;;;;;5032548;28;20112;-68
2022/08/25 04:04:12;;;;;;;0.73;0.57;;;22.20;99.90;;;;;;5031905;28;20025;-68
2022/08/25 04:06:41;;;;;;;0.00;0.00;;;22.30;99.90;;;;;;5008137;28;20117;-68
2022/08/25 04:09:08;;;;;;;4.00;0.57;;;22.30;99.90;;;;;;5032636;28;20033;-68
2022/08/25 04:11:34;;;;;;;0.45;0.40;;;22.30;99.90;;;;;;5046865;28;20053;-67
2022/08/25 04:14:01;;;;;;;0.43;0.10;;;22.30;99.90;;;;;;5014939;28;20029;-67
2022/08/25 04:16:31;;;;;;;0.65;0.63;;;22.30;99.90;;;;;;5046552;28;20029;-67
2022/08/25 04:19:00;;;;;;;0.37;0.37;;;22.30;99.90;;;;;;5048961;28;20033;-69
2022/08/25 04:21:27;;;;;;;1.05;0.77;;;22.30;99.90;;;;;;5048252;28;20036;-69
2022/08/25 04:23:55;;;;;;;0.05;0.05;;;22.10;99.90;;;;;;5031553;28;20100;-70
2022/08/25 04:26:34;;;;;;;0.52;0.52;;;21.90;99.90;;;;;;5004746;28;20175;-69
2022/08/25 04:29:03;;;;;;;0.25;0.25;;;21.70;99.90;;;;;;5030384;28;20029;-70
2022/08/25 04:31:31;;;;;;;0.10;0.10;;;21.70;99.90;;;;;;5029675;28;20044;-69
2022/08/25 04:33:58;;;;;;;2.40;0.88;;;21.70;99.90;;;;;;5012030;28;20172;-70
2022/08/25 04:36:23;;;;;;;0.10;0.10;;;21.60;99.90;;;;;;5035886;28;20250;-69
2022/08/25 04:38:49;;;;;;;0.82;0.70;;;21.50;99.90;;;;;;5021021;28;20503;-70
2022/08/25 04:41:21;;;;;;;0.43;0.43;;;21.50;99.90;;;;;;5029419;28;20034;-69
2022/08/25 04:43:47;;;;;;;1.10;0.75;;;21.40;99.90;;;;;;5012356;28;20481;-70
2022/08/25 04:46:21;;;;;;;0.00;0.00;;;21.20;99.90;;;;;;5012330;28;20516;-69
2022/08/25 04:48:49;;;;;;;0.28;0.28;;;21.20;99.90;;;;;;5012151;28;20543;-66
2022/08/25 04:51:19;;;;;;;1.48;1.20;;;21.20;99.90;;;;;;5011646;28;20064;-67
2022/08/25 04:53:45;;;;;;;0.77;0.73;;;21.20;99.90;;;;;;5030300;28;20045;-67
2022/08/25 04:56:15;;;;;;;0.38;0.38;;;21.20;99.90;;;;;;5033385;28;20033;-67
2022/08/25 04:58:41;;;;;;;0.20;0.20;;;21.20;99.90;;;;;;5030921;28;20508;-68
2022/08/25 05:01:14;;;;;;;0.30;0.30;;;21.20;99.90;;;;;;5053021;28;20037;-67
2022/08/25 05:03:40;;;;;;;0.10;0.10;;;21.20;99.90;;;;;;5035841;28;20053;-67
2022/08/25 05:06:07;;;;;;;0.45;0.38;;;21.20;99.90;;;;;;5034892;28;20409;-67
2022/08/25 05:08:33;;;;;;;0.40;0.40;;;20.90;99.90;;;;;;5035251;28;20029;-67
2022/08/25 05:11:08;;;;;;;1.85;0.40;;;20.80;99.90;;;;;;5026981;28;20052;-66
2022/08/25 05:13:35;;;;;;;2.33;0.98;;;20.70;99.90;;;;;;5032619;28;20497;-67
2022/08/25 05:16:02;;;;;;;0.00;0.00;;;20.60;99.90;;;;;;5046661;28;20095;-66
2022/08/25 05:18:31;;;;;;;3.85;0.98;;;20.70;99.90;;;;;;5034928;28;20067;-66
2022/08/25 05:21:03;;;;;;;0.90;0.75;;;20.70;99.90;;;;;;5034788;28;20033;-66
2022/08/25 05:23:29;;;;;;;0.45;0.43;;;20.60;99.90;;;;;;5034855;28;20496;-66
2022/08/25 05:26:02;;;;;;;0.52;0.35;;;20.50;99.90;;;;;;5052020;28;20501;-67
2022/08/25 05:28:27;;;;;;;1.45;0.93;;;20.50;99.90;;;;;;5050126;28;20032;-66
2022/08/25 05:30:59;;;;;;;0.15;0.15;;;20.50;99.90;;;;;;5051761;28;20037;-67
2022/08/25 05:33:25;;;;;;;0.65;0.47;;;20.50;99.90;;;;;;5049563;28;20042;-67
2022/08/25 05:35:51;;;;;;;0.65;0.57;;;20.60;99.90;;;;;;5034231;28;20486;-66
2022/08/25 05:38:17;;;;;;;0.32;0.32;;;20.70;99.90;;;;;;5051905;28;20060;-66
2022/08/25 05:40:43;;;;;;;2.00;0.70;;;20.70;99.90;;;;;;5034153;28;20543;-66
2022/08/25 05:43:09;;;;;;;0.35;0.35;;;20.70;99.90;;;;;;5051032;28;20029;-66
2022/08/25 05:45:35;;;;;;;0.20;0.20;;;20.80;99.90;;;;;;5049405;28;20568;-67
2022/08/25 05:48:01;;;;;;;1.77;1.02;;;20.90;99.90;;;;;;5050127;28;20033;-67
2022/08/25 05:50:27;;;;;;;0.00;0.00;;;20.90;99.90;;;;;;5050260;28;20036;-65
2022/08/25 05:52:53;;;;;;;14.25;1.17;;;21.10;99.90;;;;;;5032498;28;20037;-66
2022/08/25 05:55:19;;;;;;;0.93;0.75;;;21.10;99.90;;;;;;5050405;28;20075;-67
2022/08/25 05:57:45;;;;;;;2.58;1.65;;;21.20;99.90;;;;;;5032548;28;20087;-67
2022/08/25 06:00:12;;;;;;;0.70;0.70;;;21.30;99.90;;;;;;5017202;28;20041;-66
2022/08/25 06:02:47;;;;;;;0.28;0.13;;;21.30;99.90;;;;;;5051596;28;20067;-66
2022/08/25 06:05:22;;;;;;;0.88;0.52;;;21.50;99.90;;;;;;5051610;28;20393;-66
2022/08/25 06:07:50;;;;;;;0.08;0.08;;;21.60;99.90;;;;;;5033921;28;20033;-67
2022/08/25 06:10:19;;;;;;;14.15;2.05;;;21.70;99.90;;;;;;5049313;28;20060;-67
2022/08/25 06:12:46;;;;;;;1.15;0.88;;;21.70;99.90;;;;;;5030414;28;20492;-66
2022/08/25 06:15:15;;;;;;;0.38;0.30;;;21.80;99.90;;;;;;5030808;28;20452;-66
2022/08/25 06:17:41;;;;;;;0.22;0.22;;;21.90;99.90;;;;;;5013991;28;20516;-66
2022/08/25 06:20:11;;;;;;;1.15;1.05;;;22.00;99.90;;;;;;5051929;28;20068;-66
2022/08/25 06:22:37;;;;;;;0.75;0.55;;;22.20;99.90;;;;;;5033983;28;20033;-66
2022/08/25 06:25:04;;;;;;;0.50;0.50;;;22.30;99.90;;;;;;5050327;28;20028;-67
2022/08/25 06:27:30;;;;;;;0.82;0.70;;;22.40;99.90;;;;;;5050125;28;20029;-66
2022/08/25 06:29:56;;;;;;;0.88;0.85;;;22.50;99.90;;;;;;5051190;28;20103;-67
2022/08/25 06:32:21;;;;;;;1.38;1.27;;;22.60;99.90;;;;;;5050984;28;20021;-67
2022/08/25 06:34:47;;;;;;;0.50;0.35;;;22.70;99.90;;;;;;5051456;28;20497;-67
2022/08/25 06:37:13;;;;;;;0.60;0.50;;;22.80;99.90;;;;;;5051517;28;20021;-68
2022/08/25 06:39:39;;;;;;;0.15;0.15;;;22.80;99.90;;;;;;5050368;28;20028;-68
2022/08/25 06:42:05;;;;;;;19.00;0.60;;;22.90;99.90;;;;;;5050354;28;20021;-68
2022/08/25 06:44:30;;;;;;;0.40;0.28;;;22.90;99.90;;;;;;5042805;28;20025;-69
2022/08/25 06:46:56;;;;;;;0.82;0.82;;;23.00;99.90;;;;;;5051304;28;20033;-69
2022/08/25 06:49:26;;;;;;;0.30;0.25;;;23.00;99.90;;;;;;5049599;28;20027;-69
2022/08/25 06:51:52;;;;;;;2.35;0.50;;;23.10;99.90;;;;;;5051133;28;20021;-69
2022/08/25 06:54:18;;;;;;;0.52;0.52;;;23.10;99.90;;;;;;5033124;28;20389;-68
2022/08/25 06:56:44;;;;;;;11.60;1.23;;;23.20;99.90;;;;;;5051264;28;20040;-68
2022/08/25 06:59:10;;;;;;;0.52;0.52;;;23.30;99.90;;;;;;5033039;28;20040;-68
2022/08/25 07:01:36;;;;;;;0.00;0.00;;;23.40;99.90;;;;;;5033136;28;20052;-69
2022/08/25 07:04:04;;;;;;;0.32;0.32;;;23.50;99.90;;;;;;5032762;28;20025;-69
2022/08/25 07:06:34;;;;;;;0.25;0.25;;;23.60;99.90;;;;;;5033181;28;20029;-68
2022/08/25 07:09:03;;;;;;;1.30;0.38;;;23.70;99.90;;;;;;5049011;28;20344;-68
2022/08/25 07:11:32;;;;;;;0.25;0.20;;;23.80;99.90;;;;;;5043033;28;20077;-68
2022/08/25 07:14:04;;;;;;;1.93;0.63;;;23.80;99.90;;;;;;5033448;28;20432;-68
2022/08/25 07:16:30;;;;;;;0.50;0.20;;;23.90;99.90;;;;;;5016382;28;20159;-68
2022/08/25 07:18:58;;;;;;;2.25;0.85;;;24.00;99.90;;;;;;5049617;28;20103;-68
2022/08/25 07:21:25;;;;;;;0.40;0.30;;;24.10;99.90;;;;;;5050472;28;20025;-69
2022/08/25 07:23:51;;;;;;;1.75;0.77;;;24.20;99.90;;;;;;5032427;28;20036;-69
2022/08/25 07:26:23;;;;;;;0.13;0.13;;;24.10;99.90;;;;;;5050647;28;20016;-69
2022/08/25 07:28:49;;;;;;;0.88;0.88;;;24.30;99.90;;;;;;5032758;28;20060;-67
2022/08/25 07:31:15;;;;;;;0.98;0.65;;;24.40;99.90;;;;;;5032872;28;20048;-67
2022/08/25 07:35:14;;;;;;;1.42;1.13;;;24.40;99.90;;;;;;5032110;28;20025;-70
2022/08/25 07:36:28;;;;;;;0.20;0.20;;;24.50;99.90;;;;;;5035218;28;20036;-68
2022/08/25 07:38:54;;;;;;;0.30;0.20;;;24.50;99.90;;;;;;5049223;28;20171;-66
2022/08/25 07:41:20;;;;;;;0.35;0.28;;;24.60;99.90;;;;;;5028957;28;20100;-65
2022/08/25 07:43:46;;;;;;;1.15;0.73;;;24.60;99.90;;;;;;5028904;28;20432;-65
2022/08/25 07:46:12;;;;;;;0.13;0.13;;;24.70;99.90;;;;;;5030061;28;20025;-65
2022/08/25 07:48:38;;;;;;;1.35;1.25;;;24.80;99.90;;;;;;5029293;28;20033;-65
2022/08/25 07:51:13;;;;;;;0.30;0.28;;;24.90;99.90;;;;;;5030194;28;20485;-65
2022/08/25 07:53:40;;;;;;;0.93;0.65;;;25.00;99.90;;;;;;5012215;28;20036;-65
2022/08/25 07:56:15;;;;;;;0.68;0.68;;;25.10;99.90;;;;;;5012506;28;20111;-65
2022/08/25 07:58:42;;;;;;;0.30;0.30;;;25.10;99.90;;;;;;5030202;28;20425;-66
2022/08/25 08:01:21;;;;;;;2.60;0.75;;;25.20;99.90;;;;;;5029077;28;20029;-68
2022/08/25 08:03:47;;;;;;;0.00;0.00;;;25.30;99.90;;;;;;5029885;28;20123;-68
2022/08/25 08:06:21;;;;;;;0.45;0.45;;;25.40;99.70;;;;;;5030042;28;20584;-67
2022/08/25 08:08:49;;;;;;;0.25;0.25;;;25.60;99.20;;;;;;5029130;28;20017;-68
2022/08/25 08:11:29;;;;;;;1.25;1.00;;;25.70;99.10;;;;;;5022232;28;20649;-68
2022/08/25 08:13:56;;;;;;;0.35;0.28;;;25.80;98.60;;;;;;5049856;28;20037;-68
2022/08/25 08:16:26;;;;;;;0.60;0.55;;;25.80;98.40;;;;;;5020828;23;20093;-67
2022/08/25 08:18:52;;;;;;;3.95;0.52;;;25.80;98.00;;;;;;4992530;28;20427;-67
2022/08/25 08:21:31;;;;;;;0.17;0.17;;;25.80;98.00;;;;;;4990362;28;20478;-66
2022/08/25 08:23:58;;;;;;;1.10;1.00;;;25.90;97.60;;;;;;5002466;28;20033;-67
2022/08/25 08:26:25;;;;;;;0.70;0.45;;;26.00;97.60;;;;;;5025531;28;20026;-64
2022/08/25 08:28:51;;;;;;;2.95;0.98;;;26.10;97.80;;;;;;5013143;28;20022;-64
2022/08/25 08:31:23;;;;;;;0.50;0.43;;;26.20;97.10;;;;;;5032684;28;20069;-64
2022/08/25 08:33:50;;;;;;;0.28;0.28;;;26.30;96.80;;;;;;5032220;28;20029;-64
2022/08/25 08:36:17;;;;;;;0.65;0.65;;;26.30;96.80;;;;;;5015655;28;20115;-64
2022/08/25 08:38:44;;;;;;;0.57;0.50;;;26.40;96.70;;;;;;5032424;28;20040;-64
2022/08/25 08:45:06;;;;;;;0.63;0.63;;;26.40;96.40;;;;;;5014172;28;20041;-64
2022/08/25 08:47:56;;;;;;;1.10;0.57;;;26.30;95.80;;;;;;4999133;28;20137;-64
2022/08/25 08:50:36;;;;;;;0.60;0.43;;;26.40;95.70;;;;;;4997486;28;20316;-64
2022/08/25 08:53:18;;;;;;;1.83;0.47;;;26.60;95.40;;;;;;5013584;28;20470;-64
2022/08/25 08:55:59;;;;;;;1.02;0.40;;;26.80;94.90;;;;;;4997348;28;20037;-64
2022/08/25 08:58:46;;;;;;;0.10;0.10;;;27.00;94.70;;;;;;4996214;28;20041;-63
2022/08/25 09:01:23;;;;;;;0.57;0.50;;;27.10;94.40;;;;;;5013619;28;20084;-64
2022/08/25 09:03:58;;;;;;;0.20;0.20;;;27.00;94.50;;;;;;4996730;28;20018;-64
2022/08/25 09:06:31;;;;;;;0.70;0.40;;;27.10;94.00;;;;;;4996238;28;20335;-64
2022/08/25 09:09:02;;;;;;;0.10;0.10;;;27.10;93.70;;;;;;4996010;28;20486;-64
2022/08/25 09:12:04;;;;;;;0.10;0.10;;;27.20;93.60;;;;;;4996442;28;20038;-64
2022/08/25 09:15:02;;;;;;;0.40;0.32;;;27.40;93.30;;;;;;5011935;28;20034;-64
2022/08/25 09:17:58;;;;;;;1.65;0.38;;;27.50;92.90;;;;;;5012323;28;20065;-64
2022/08/25 09:20:37;;;;;;;0.45;0.45;;;27.50;92.80;;;;;;5013068;28;20042;-64
2022/08/25 09:23:24;;;;;;;0.65;0.65;;;27.60;92.80;;;;;;5012702;28;20105;-64
2022/08/25 09:26:27;;;;;;;1.25;0.70;;;27.70;92.40;;;;;;5013372;28;20061;-66
2022/08/25 09:29:14;;;;;;;0.25;0.25;;;27.70;92.10;;;;;;5011354;28;20387;-65
2022/08/25 09:31:41;;;;;;;1.30;0.98;;;27.60;92.20;;;;;;5013031;28;20058;-64
2022/08/25 09:34:19;;;;;;;0.03;0.03;;;27.70;92.20;;;;;;5011405;28;20054;-65
2022/08/25 09:36:47;;;;;;;0.30;0.30;;;28.00;92.10;;;;;;5011690;28;20414;-60
2022/08/25 09:39:13;;;;;;;0.20;0.15;;;28.00;91.60;;;;;;5012680;28;20034;-61
2022/08/25 09:41:55;;;;;;;4.03;0.95;;;27.90;91.60;;;;;;5011886;28;20045;-61
2022/08/25 09:44:33;;;;;;;0.32;0.32;;;28.20;91.50;;;;;;4995352;28;20026;-60
2022/08/25 09:47:12;;;;;;;0.15;0.15;;;28.20;91.10;;;;;;5012843;28;20153;-61
2022/08/25 09:49:46;;;;;;;1.55;0.32;;;28.40;91.30;;;;;;5012550;28;20030;-61
2022/08/25 09:52:37;;;;;;;4.95;1.05;;;28.50;90.60;;;;;;4995469;28;20417;-73
2022/08/25 09:55:14;;;;;;;1.13;0.35;;;28.30;90.50;;;;;;4995153;28;20038;-73
2022/08/25 09:57:43;;;;;;;2.47;1.15;;;28.60;90.50;;;;;;5012504;28;20083;-74
2022/08/25 10:00:29;;;;;;;4.40;1.17;;;28.80;90.40;;;;;;4994758;28;20041;-76
2022/08/25 10:03:20;;;;;;;0.00;0.00;;;28.80;89.80;;;;;;5012037;28;20393;-76
2022/08/25 10:06:11;;;;;;;0.08;0.08;;;29.00;88.70;;;;;;4997088;28;20061;-72
2022/08/25 10:09:05;;;;;;;0.08;0.08;;;29.00;88.10;;;;;;4995485;28;20026;-73
2022/08/25 10:11:40;;;;;;;0.82;0.68;;;29.30;88.40;;;;;;5014797;28;20030;-76
2022/08/25 10:14:37;;;;;;;0.30;0.30;;;29.10;88.50;;;;;;5011066;28;20124;-75
2022/08/25 10:17:26;;;;;;;0.20;0.10;;;28.80;89.00;;;;;;4994654;28;20045;-73
2022/08/25 10:20:08;;;;;;;0.70;0.40;;;29.20;89.00;;;;;;5011905;28;20087;-75
2022/08/25 10:22:35;;;;;;;0.30;0.30;;;29.30;88.10;;;;;;5026937;28;20458;-75
2022/08/25 10:25:06;;;;;;;0.63;0.55;;;29.00;89.00;;;;;;5031627;28;20025;-61
2022/08/25 10:28:01;;;;;;;0.43;0.43;;;29.10;88.10;;;;;;5030897;28;20060;-66
2022/08/25 10:31:06;;;;;;;0.20;0.20;;;29.30;88.40;;;;;;5031633;28;20389;-73
2022/08/25 10:33:44;;;;;;;0.32;0.32;;;29.70;88.00;;;;;;5031393;28;20493;-73
2022/08/25 10:36:21;;;;;;;0.30;0.30;;;29.80;86.70;;;;;;5028771;28;20041;-74
2022/08/25 10:39:00;;;;;;;1.45;0.65;;;30.10;87.40;;;;;;5009104;28;20557;-73
2022/08/25 10:42:02;;;;;;;0.20;0.20;;;30.40;85.60;;;;;;5007670;28;20569;-72
2022/08/25 10:48:11;;;;;;;1.83;0.60;;;30.10;85.30;;;;;;5009048;28;20544;-72
2022/08/25 10:50:43;;;;;;;0.73;0.73;;;29.90;85.10;;;;;;4980441;28;20403;-72
2022/08/25 10:54:05;;;;;;;0.38;0.38;;;30.20;85.80;;;;;;5008586;28;20034;-72
2022/08/25 10:56:40;;;;;;;0.55;0.45;;;30.60;83.70;;;;;;5000454;28;20037;-72
2022/08/25 10:59:09;;;;;;;0.75;0.55;;;31.00;83.00;;;;;;5008829;28;20032;-72
2022/08/25 11:02:07;;;;;;;0.30;0.30;;;30.80;82.30;;;;;;5009999;28;20490;-72
2022/08/25 11:05:08;;;;;;;0.28;0.28;;;30.20;82.20;;;;;;5011227;28;20508;-72
2022/08/25 11:07:49;;;;;;;2.72;0.32;;;30.30;82.40;;;;;;5010310;28;20110;-72
2022/08/25 11:10:24;;;;;;;0.28;0.10;;;30.60;83.20;;;;;;5009708;28;20565;-72
2022/08/25 11:12:58;;;;;;;3.00;0.45;;;31.00;81.90;;;;;;4993736;28;20044;-72
2022/08/25 11:15:37;;;;;;;0.22;0.15;;;31.10;81.20;;;;;;5009852;28;20072;-72
2022/08/25 11:18:10;;;;;;;0.32;0.28;;;31.10;81.20;;;;;;5010232;28;20030;-72
2022/08/25 11:20:54;;;;;;;0.08;0.08;;;31.00;81.20;;;;;;5009277;28;20069;-72
2022/08/25 11:23:48;;;;;;;0.10;0.10;;;31.20;80.80;;;;;;5009851;28;20080;-72
2022/08/25 11:26:28;;;;;;;0.28;0.20;;;31.20;79.60;;;;;;5009824;28;20124;-72
2022/08/25 11:29:31;;;;;;;0.10;0.10;;;31.00;80.30;;;;;;5009883;28;20022;-72
2022/08/25 11:32:00;;;;;;;0.10;0.10;;;31.00;80.10;;;;;;5002749;28;20041;-71
2022/08/25 11:34:32;;;;;;;0.73;0.45;;;30.90;80.20;;;;;;4992626;28;20026;-72
2022/08/25 11:37:12;;;;;;;1.65;0.57;;;30.40;81.10;;;;;;4977213;28;20038;-72
2022/08/25 11:40:03;;;;;;;0.00;0.00;;;30.40;81.50;;;;;;4994722;28;20474;-72
2022/08/25 11:42:56;;;;;;;0.22;0.20;;;30.20;81.50;;;;;;5010922;28;20038;-72
2022/08/25 11:45:41;;;;;;;0.20;0.20;;;30.50;81.70;;;;;;5010494;28;20042;-72
2022/08/25 11:49:06;;;;;;;0.17;0.10;;;30.30;80.90;;;;;;5010743;28;20064;-71
2022/08/25 11:51:43;;;;;;;0.28;0.13;;;30.50;80.80;;;;;;4964458;28;20520;-71
2022/08/25 11:54:33;;;;;;;0.47;0.47;;;30.90;79.90;;;;;;5010626;28;20033;-72
2022/08/25 11:57:18;;;;;;;0.10;0.10;;;31.10;79.60;;;;;;5010634;28;20482;-72
2022/08/25 11:59:53;;;;;;;1.38;1.15;;;31.20;78.30;;;;;;5009194;28;20060;-72
2022/08/25 12:02:55;;;;;;;0.03;0.03;;;31.40;78.00;;;;;;5010443;28;20111;-72
2022/08/25 12:05:20;;;;;;;0.45;0.15;;;31.50;77.70;;;;;;5009582;28;20042;-71
2022/08/25 12:07:47;;;;;;;1.65;0.30;;;31.50;77.30;;;;;;5010345;28;20040;-72
2022/08/25 12:10:23;;;;;;;0.88;0.88;;;31.50;77.50;;;;;;4994952;28;20044;-72
2022/08/25 12:13:23;;;;;;;0.30;0.20;;;31.50;76.60;;;;;;5009013;28;20034;-72
2022/08/25 12:15:49;;;;;;;0.75;0.57;;;31.20;76.90;;;;;;4995336;28;20453;-71
2022/08/25 12:18:41;;;;;;;0.63;0.22;;;31.00;76.70;;;;;;5010268;28;20077;-71
2022/08/25 12:21:08;;;;;;;0.10;0.10;;;31.10;78.10;;;;;;4992340;28;20044;-72
2022/08/25 12:24:07;;;;;;;1.13;0.75;;;31.20;77.40;;;;;;5012520;28;20385;-72
2022/08/25 12:26:57;;;;;;;0.70;0.60;;;30.90;76.90;;;;;;5008861;28;20033;-72
2022/08/25 12:30:09;;;;;;;4.67;0.53;;;31.00;77.50;;;;;;4993222;28;20053;-72
2022/08/25 12:33:04;;;;;;;0.52;0.45;;;30.90;77.70;;;;;;4994897;28;20042;-72
2022/08/25 12:35:50;;;;;;;0.55;0.25;;;30.90;77.30;;;;;;5010304;28;20033;-73
2022/08/25 12:38:30;;;;;;;0.47;0.35;;;31.40;77.80;;;;;;5010062;28;20029;-71
2022/08/25 12:41:12;;;;;;;0.77;0.75;;;32.20;76.60;;;;;;5009835;28;20030;-72
2022/08/25 12:43:50;;;;;;;0.57;0.57;;;32.50;74.80;;;;;;4992008;28;20030;-72
2022/08/25 12:46:21;;;;;;;0.45;0.45;;;32.90;74.40;;;;;;4992937;28;20414;-72
2022/08/25 12:49:19;;;;;;;0.20;0.20;;;33.10;73.70;;;;;;5010059;28;20030;-72
2022/08/25 12:52:30;;;;;;;0.65;0.52;;;32.80;72.80;;;;;;4995058;28;20106;-71
2022/08/25 12:55:04;;;;;;;0.70;0.60;;;32.80;73.90;;;;;;4938071;29;20046;-71
2022/08/25 12:57:45;;;;;;;0.73;0.30;;;33.60;72.50;;;;;;4933356;29;20528;-71
2022/08/25 13:00:25;;;;;;;0.52;0.50;;;34.10;70.80;;;;;;4948874;29;20051;-71
2022/08/25 13:03:40;;;;;;;0.30;0.30;;;33.40;70.60;;;;;;4948865;29;20130;-71
2022/08/25 13:06:23;;;;;;;0.13;0.13;;;33.70;71.40;;;;;;4949239;29;20427;-71
2022/08/25 13:09:28;;;;;;;0.90;0.40;;;34.20;70.30;;;;;;4948873;28;20503;-71
2022/08/25 13:12:28;;;;;;;0.50;0.50;;;35.10;68.80;;;;;;4964166;28;20046;-71
2022/08/25 13:14:56;;;;;;;0.38;0.20;;;34.70;68.00;;;;;;4953986;28;20415;-71
2022/08/25 13:17:34;;;;;;;1.02;0.32;;;34.50;67.70;;;;;;4955176;28;20448;-71
2022/08/25 13:20:22;;;;;;;0.50;0.35;;;34.60;68.80;;;;;;4955791;28;20043;-71
2022/08/25 13:22:52;;;;;;;0.65;0.45;;;35.20;67.30;;;;;;4956037;28;20491;-71
2022/08/25 13:25:22;;;;;;;0.20;0.20;;;35.30;66.70;;;;;;4971300;28;20054;-71
2022/08/25 13:27:57;;;;;;;1.00;0.68;;;35.50;65.30;;;;;;4995666;28;20029;-71